Time;durP1;ratioP1;P1;durP2;ratioP2;P2;SDS_P1;SDS_P2;PMS_P1;PMS_P2;Temp;Humidity;BMP_temperature;BMP_pressure;BME280_temperature;BME280_humidity;BME280_pressure;Samples;Min_cycle;Max_cycle;Signal;HPM_P1;HPM_P2
2022/03/29 00:00:17;;;;;;;31.58;18.75;;;6.60;99.90;;;;;;5017829;28;20626;-58
2022/03/29 00:02:45;;;;;;;31.25;18.67;;;6.60;99.90;;;;;;5017200;28;20209;-58
2022/03/29 00:05:12;;;;;;;24.50;17.45;;;6.60;99.90;;;;;;5016664;28;20196;-58
2022/03/29 00:07:40;;;;;;;30.13;20.05;;;6.60;99.90;;;;;;5014664;28;20240;-59
2022/03/29 00:10:08;;;;;;;25.50;18.15;;;6.60;99.90;;;;;;5036880;23;20701;-54
2022/03/29 00:12:36;;;;;;;28.05;18.75;;;6.70;99.90;;;;;;5013743;28;20248;-54
2022/03/29 00:15:03;;;;;;;26.38;18.77;;;6.70;99.90;;;;;;5013469;28;20220;-54
2022/03/29 00:17:30;;;;;;;28.52;19.10;;;6.70;99.90;;;;;;5013745;28;20208;-54
2022/03/29 00:19:57;;;;;;;26.42;18.95;;;6.70;99.90;;;;;;5013480;28;20257;-54
2022/03/29 00:22:25;;;;;;;26.20;19.02;;;6.60;99.90;;;;;;5013388;28;20204;-54
2022/03/29 00:24:53;;;;;;;26.80;18.80;;;6.60;99.90;;;;;;5015134;28;20208;-54
2022/03/29 00:27:20;;;;;;;30.92;20.10;;;6.60;99.90;;;;;;5017525;28;20207;-55
2022/03/29 00:29:48;;;;;;;31.33;18.80;;;6.60;99.90;;;;;;5017232;28;20231;-55
2022/03/29 00:32:15;;;;;;;30.08;18.95;;;6.60;99.90;;;;;;5017486;28;20212;-55
2022/03/29 00:34:42;;;;;;;28.48;20.00;;;6.60;99.90;;;;;;5017320;28;20224;-55
2022/03/29 00:37:09;;;;;;;27.02;18.77;;;6.60;99.90;;;;;;5017325;28;20592;-55
2022/03/29 00:39:36;;;;;;;26.90;18.45;;;6.70;99.90;;;;;;5016960;28;20636;-55
2022/03/29 00:42:05;;;;;;;28.13;20.02;;;6.60;99.90;;;;;;5017195;28;20211;-55
2022/03/29 00:44:34;;;;;;;28.52;18.50;;;6.70;99.90;;;;;;5018199;28;20204;-55
2022/03/29 00:47:01;;;;;;;30.85;22.05;;;6.60;99.90;;;;;;5017090;28;20272;-55
2022/03/29 00:49:29;;;;;;;30.02;19.67;;;6.60;99.90;;;;;;5016714;28;20252;-55
2022/03/29 00:52:00;;;;;;;25.08;18.65;;;6.60;99.90;;;;;;5017140;28;20223;-55
2022/03/29 00:54:27;;;;;;;26.73;18.92;;;6.60;99.90;;;;;;5017033;28;20217;-54
2022/03/29 00:56:57;;;;;;;30.35;19.85;;;6.60;99.90;;;;;;5017390;28;20216;-54
2022/03/29 00:59:26;;;;;;;30.08;19.77;;;6.60;99.90;;;;;;5017683;28;20228;-54
2022/03/29 01:01:53;;;;;;;27.20;20.05;;;6.60;99.90;;;;;;5017672;28;20700;-55
2022/03/29 01:04:21;;;;;;;33.05;20.95;;;6.60;99.90;;;;;;5018785;28;20205;-54
2022/03/29 01:06:48;;;;;;;28.58;20.30;;;6.60;99.90;;;;;;5018772;28;20243;-55
2022/03/29 01:09:15;;;;;;;29.55;19.70;;;6.60;99.90;;;;;;5018487;28;20235;-54
2022/03/29 01:11:43;;;;;;;32.92;20.23;;;6.50;99.90;;;;;;5019684;28;20216;-54
2022/03/29 01:14:11;;;;;;;28.67;20.52;;;6.50;99.90;;;;;;5019931;28;20227;-54
2022/03/29 01:19:26;;;;;;;33.67;21.65;;;6.50;99.90;;;;;;5019676;28;20219;-54
2022/03/29 01:21:59;;;;;;;32.88;21.80;;;6.40;99.90;;;;;;5020650;28;20213;-53
2022/03/29 01:24:27;;;;;;;31.58;20.90;;;6.40;99.90;;;;;;5019260;28;20213;-54
2022/03/29 01:26:57;;;;;;;33.10;21.38;;;6.40;99.90;;;;;;5018835;28;20213;-54
2022/03/29 01:29:25;;;;;;;32.35;21.83;;;6.40;99.90;;;;;;5016687;28;20252;-55
2022/03/29 01:31:52;;;;;;;29.75;21.10;;;6.40;99.90;;;;;;5016699;28;20563;-55
2022/03/29 01:34:20;;;;;;;33.33;23.15;;;6.40;99.90;;;;;;5017274;28;20232;-54
2022/03/29 01:36:47;;;;;;;30.48;21.98;;;6.40;99.90;;;;;;5016528;28;20211;-54
2022/03/29 01:39:15;;;;;;;27.65;20.45;;;6.40;99.90;;;;;;5017492;28;20228;-55
2022/03/29 01:41:43;;;;;;;36.33;22.50;;;6.40;99.90;;;;;;5017546;28;20210;-54
2022/03/29 01:44:11;;;;;;;29.77;21.42;;;6.40;99.90;;;;;;5017685;28;20673;-54
2022/03/29 01:46:38;;;;;;;30.38;21.52;;;6.40;99.90;;;;;;5017896;28;20207;-55
2022/03/29 01:49:06;;;;;;;27.95;20.25;;;6.40;99.90;;;;;;5017346;28;20228;-55
2022/03/29 01:51:33;;;;;;;28.85;19.77;;;6.40;99.90;;;;;;5018435;28;20234;-54
2022/03/29 01:54:02;;;;;;;30.98;19.75;;;6.40;99.90;;;;;;5018245;28;20205;-55
2022/03/29 01:56:32;;;;;;;33.83;20.95;;;6.40;99.90;;;;;;5018268;28;20214;-55
2022/03/29 01:59:00;;;;;;;33.30;23.00;;;6.40;99.90;;;;;;5018308;28;20787;-55
2022/03/29 02:01:27;;;;;;;32.58;20.35;;;6.40;99.90;;;;;;5017970;28;20207;-54
2022/03/29 02:03:54;;;;;;;30.95;20.85;;;6.40;99.90;;;;;;5016948;28;20209;-54
2022/03/29 02:06:21;;;;;;;30.10;21.58;;;6.40;99.90;;;;;;5018182;28;20252;-54
2022/03/29 02:08:49;;;;;;;30.73;21.85;;;6.40;99.90;;;;;;5017900;28;20232;-55
2022/03/29 02:11:16;;;;;;;28.08;19.80;;;6.40;99.90;;;;;;5016476;28;20660;-55
2022/03/29 02:13:45;;;;;;;31.85;20.98;;;6.30;99.90;;;;;;5016867;28;20212;-55
2022/03/29 02:16:12;;;;;;;31.58;22.50;;;6.40;99.90;;;;;;5017739;28;20228;-55
2022/03/29 02:18:39;;;;;;;30.45;20.20;;;6.40;99.90;;;;;;5016441;28;20705;-55
2022/03/29 02:21:06;;;;;;;28.40;20.67;;;6.40;99.90;;;;;;5015170;28;20204;-54
2022/03/29 02:23:33;;;;;;;30.55;21.70;;;6.40;99.90;;;;;;5015109;28;20211;-56
2022/03/29 02:26:04;;;;;;;30.38;22.17;;;6.40;99.90;;;;;;5015100;28;20200;-55
2022/03/29 02:28:31;;;;;;;32.03;21.42;;;6.40;99.90;;;;;;5015330;28;20224;-56
2022/03/29 02:30:59;;;;;;;33.92;23.15;;;6.40;99.90;;;;;;5015009;28;20682;-55
2022/03/29 02:33:26;;;;;;;31.58;20.92;;;6.40;99.90;;;;;;5014945;28;20203;-56
2022/03/29 02:35:54;;;;;;;31.75;21.42;;;6.40;99.90;;;;;;5014865;28;20721;-55
2022/03/29 02:38:21;;;;;;;25.75;20.27;;;6.40;99.90;;;;;;5015217;28;20302;-55
2022/03/29 02:40:48;;;;;;;26.92;19.88;;;6.40;99.90;;;;;;5015263;28;20207;-55
2022/03/29 02:43:16;;;;;;;29.27;20.33;;;6.40;99.90;;;;;;5014959;28;20200;-54
2022/03/29 02:45:43;;;;;;;31.05;21.05;;;6.30;99.90;;;;;;5015084;28;20201;-55
2022/03/29 02:48:12;;;;;;;31.88;20.90;;;6.30;99.90;;;;;;5013826;28;20208;-56
2022/03/29 02:50:39;;;;;;;31.55;21.60;;;6.30;99.90;;;;;;5014621;28;20232;-55
2022/03/29 02:53:06;;;;;;;36.15;22.52;;;6.30;99.90;;;;;;5014527;28;20697;-55
2022/03/29 02:55:34;;;;;;;27.98;20.58;;;6.30;99.90;;;;;;5014368;28;20221;-55
2022/03/29 02:58:01;;;;;;;32.10;20.55;;;6.30;99.90;;;;;;5014732;28;20253;-55
2022/03/29 03:00:28;;;;;;;31.35;22.10;;;6.30;99.90;;;;;;5014552;28;20221;-55
2022/03/29 03:02:57;;;;;;;28.42;20.88;;;6.30;99.90;;;;;;5014760;28;20213;-55
2022/03/29 03:05:25;;;;;;;31.77;20.35;;;6.30;99.90;;;;;;5014786;28;20213;-55
2022/03/29 03:07:53;;;;;;;35.15;23.10;;;6.30;99.90;;;;;;5015578;28;20208;-55
2022/03/29 03:10:21;;;;;;;30.55;21.60;;;6.30;99.90;;;;;;5014057;28;20302;-55
2022/03/29 03:12:49;;;;;;;35.58;23.27;;;6.30;99.90;;;;;;5014443;28;20205;-55
2022/03/29 03:15:18;;;;;;;36.13;25.65;;;6.20;99.90;;;;;;5014356;28;20232;-55
2022/03/29 03:17:46;;;;;;;39.85;26.50;;;6.20;99.90;;;;;;5014260;28;20218;-55
2022/03/29 03:20:14;;;;;;;38.88;24.98;;;6.30;99.90;;;;;;5013874;28;20736;-55
2022/03/29 03:22:43;;;;;;;44.60;27.70;;;6.30;99.90;;;;;;5013861;28;20204;-56
2022/03/29 03:25:11;;;;;;;43.03;27.92;;;6.30;99.90;;;;;;5014062;28;20204;-55
2022/03/29 03:27:38;;;;;;;44.90;28.35;;;6.30;99.90;;;;;;5013814;28;20212;-55
2022/03/29 03:30:07;;;;;;;41.17;26.17;;;6.30;99.90;;;;;;5013810;28;20735;-55
2022/03/29 03:32:34;;;;;;;45.10;28.02;;;6.30;99.90;;;;;;5014059;28;20212;-55
2022/03/29 03:35:01;;;;;;;46.55;29.35;;;6.30;99.90;;;;;;5013564;28;20614;-55
2022/03/29 03:37:28;;;;;;;44.95;27.95;;;6.30;99.90;;;;;;5013984;28;20211;-55
2022/03/29 03:39:57;;;;;;;39.72;25.67;;;6.30;99.90;;;;;;5013577;28;20603;-55
2022/03/29 03:42:24;;;;;;;40.80;27.10;;;6.30;99.90;;;;;;5013559;28;20569;-56
2022/03/29 03:44:51;;;;;;;44.30;28.60;;;6.30;99.90;;;;;;5013592;28;20672;-54
2022/03/29 03:47:18;;;;;;;48.30;28.55;;;6.30;99.90;;;;;;5013523;28;20200;-54
2022/03/29 03:49:45;;;;;;;59.92;29.00;;;6.40;99.90;;;;;;5013461;28;20224;-54
2022/03/29 03:52:12;;;;;;;47.38;29.33;;;6.40;99.90;;;;;;5013736;28;20212;-54
2022/03/29 03:54:39;;;;;;;48.42;31.95;;;6.40;99.90;;;;;;5013457;28;20580;-55
2022/03/29 03:57:08;;;;;;;50.42;30.02;;;6.40;99.90;;;;;;5013387;28;20203;-52
2022/03/29 03:59:35;;;;;;;52.08;31.70;;;6.40;99.90;;;;;;5013329;28;20322;-54
2022/03/29 04:02:03;;;;;;;54.85;31.85;;;6.30;99.90;;;;;;5013297;28;20205;-54
2022/03/29 04:04:30;;;;;;;45.05;30.00;;;6.30;99.90;;;;;;5013770;28;20200;-53
2022/03/29 04:09:35;;;;;;;50.90;31.88;;;6.30;99.90;;;;;;5090721;27;20565;-54
2022/03/29 04:12:02;;;;;;;58.65;32.50;;;6.40;99.90;;;;;;5090817;28;20312;-55
2022/03/29 04:14:29;;;;;;;55.42;33.72;;;6.40;99.90;;;;;;5090758;28;20211;-54
2022/03/29 04:16:56;;;;;;;51.40;31.27;;;6.40;99.90;;;;;;5090572;28;20208;-54
2022/03/29 04:19:23;;;;;;;47.60;31.30;;;6.40;99.90;;;;;;5091677;28;20218;-54
2022/03/29 04:21:50;;;;;;;46.33;30.35;;;6.40;99.90;;;;;;5091372;28;20206;-55
2022/03/29 04:24:18;;;;;;;49.83;31.27;;;6.40;99.90;;;;;;5090662;28;20213;-55
2022/03/29 04:26:47;;;;;;;51.08;33.17;;;6.40;99.90;;;;;;5090560;28;20205;-55
2022/03/29 04:29:14;;;;;;;55.13;33.20;;;6.40;99.90;;;;;;5090466;28;20231;-54
2022/03/29 04:31:41;;;;;;;50.47;33.75;;;6.40;99.90;;;;;;5090367;28;20199;-54
2022/03/29 04:34:08;;;;;;;57.63;32.08;;;6.40;99.90;;;;;;5090492;28;20205;-54
2022/03/29 04:36:35;;;;;;;56.03;33.20;;;6.40;99.90;;;;;;5090574;28;20210;-55
2022/03/29 04:39:02;;;;;;;57.70;32.28;;;6.40;99.90;;;;;;5090544;28;20224;-54
2022/03/29 04:41:29;;;;;;;53.67;31.75;;;6.40;99.90;;;;;;5090126;28;20545;-55
2022/03/29 04:43:58;;;;;;;51.10;32.60;;;6.40;99.90;;;;;;5089984;28;20217;-54
2022/03/29 04:46:25;;;;;;;45.70;30.38;;;6.40;99.90;;;;;;5089994;28;20696;-53
2022/03/29 04:48:52;;;;;;;44.85;29.63;;;6.30;99.90;;;;;;5090238;28;20230;-55
2022/03/29 04:51:20;;;;;;;51.15;31.90;;;6.30;99.90;;;;;;5089937;28;20210;-55
2022/03/29 04:53:47;;;;;;;48.53;34.35;;;6.40;99.90;;;;;;5090101;28;20205;-54
2022/03/29 04:56:14;;;;;;;47.35;31.48;;;6.40;99.90;;;;;;5090107;28;20210;-55
2022/03/29 04:58:41;;;;;;;49.63;31.75;;;6.30;99.90;;;;;;5089400;28;20681;-54
2022/03/29 05:01:09;;;;;;;51.08;30.67;;;6.40;99.90;;;;;;5089874;28;20210;-53
2022/03/29 05:03:36;;;;;;;47.40;28.40;;;6.40;99.90;;;;;;5089731;28;20689;-54
2022/03/29 05:06:04;;;;;;;45.47;28.90;;;6.40;99.90;;;;;;5089787;28;20558;-54
2022/03/29 05:08:31;;;;;;;43.83;28.60;;;6.40;99.90;;;;;;5089305;28;20233;-53
2022/03/29 05:10:59;;;;;;;41.90;26.45;;;6.40;99.90;;;;;;5089658;28;20207;-54
2022/03/29 05:13:26;;;;;;;48.13;27.58;;;6.40;99.90;;;;;;5089679;28;20197;-54
2022/03/29 05:15:53;;;;;;;37.90;26.02;;;6.40;99.90;;;;;;5090423;28;20232;-54
2022/03/29 05:18:22;;;;;;;42.90;27.58;;;6.40;99.90;;;;;;5090061;28;20202;-54
2022/03/29 05:20:49;;;;;;;50.78;30.55;;;6.40;99.90;;;;;;5077381;28;20259;-54
2022/03/29 05:23:17;;;;;;;39.75;25.48;;;6.30;99.90;;;;;;5076752;28;20313;-54
2022/03/29 05:25:45;;;;;;;39.45;28.52;;;6.40;99.90;;;;;;5076394;28;20210;-54
2022/03/29 05:28:12;;;;;;;45.05;26.00;;;6.30;99.90;;;;;;5077051;28;20269;-54
2022/03/29 05:30:39;;;;;;;35.53;23.40;;;6.30;99.90;;;;;;5076343;28;20216;-54
2022/03/29 05:33:06;;;;;;;39.55;24.33;;;6.30;99.90;;;;;;5076516;28;20663;-54
2022/03/29 05:35:35;;;;;;;36.78;24.10;;;6.30;99.90;;;;;;5076913;28;20246;-54
2022/03/29 05:38:04;;;;;;;40.80;24.45;;;6.20;99.90;;;;;;5076358;28;20290;-53
2022/03/29 05:40:32;;;;;;;43.22;25.88;;;6.20;99.90;;;;;;5076538;28;20671;-53
2022/03/29 05:42:59;;;;;;;43.85;25.00;;;6.20;99.90;;;;;;5075911;28;20289;-53
2022/03/29 05:45:28;;;;;;;40.85;24.17;;;6.20;99.90;;;;;;5075999;28;20205;-52
2022/03/29 05:50:42;;;;;;;54.20;28.38;;;6.30;99.90;;;;;;5076177;28;20257;-54
2022/03/29 05:53:09;;;;;;;41.08;28.13;;;6.40;99.90;;;;;;5076702;28;20252;-53
2022/03/29 05:55:36;;;;;;;44.42;26.35;;;6.40;99.90;;;;;;5076857;28;20241;-53
2022/03/29 05:58:04;;;;;;;48.55;27.23;;;6.40;99.90;;;;;;5076232;28;20207;-53
2022/03/29 06:00:31;;;;;;;42.28;27.42;;;6.40;99.90;;;;;;5076112;28;20297;-55
2022/03/29 06:02:58;;;;;;;49.17;28.42;;;6.50;99.90;;;;;;5075354;28;20202;-54
2022/03/29 06:05:25;;;;;;;36.25;24.30;;;6.50;99.90;;;;;;5076173;28;20202;-55
2022/03/29 06:07:54;;;;;;;37.28;23.50;;;6.50;99.90;;;;;;5075159;28;20219;-53
2022/03/29 06:10:21;;;;;;;34.15;23.23;;;6.50;99.90;;;;;;5074403;22;20691;-51
2022/03/29 06:12:48;;;;;;;36.17;23.23;;;6.60;99.90;;;;;;5035211;28;20281;-52
2022/03/29 06:15:17;;;;;;;39.97;23.30;;;6.60;99.90;;;;;;5033075;28;20209;-52
2022/03/29 06:17:44;;;;;;;41.75;23.75;;;6.60;99.90;;;;;;5033822;28;20574;-52
2022/03/29 06:20:12;;;;;;;35.50;24.55;;;6.50;99.90;;;;;;5035638;28;20246;-53
2022/03/29 06:22:43;;;;;;;35.22;22.60;;;6.50;99.90;;;;;;5035304;28;20519;-52
2022/03/29 06:25:12;;;;;;;35.70;23.65;;;6.60;99.90;;;;;;5034946;28;20272;-53
2022/03/29 06:27:39;;;;;;;39.55;23.80;;;6.60;99.90;;;;;;5034511;28;20204;-54
2022/03/29 06:30:08;;;;;;;35.78;24.38;;;6.60;99.90;;;;;;5034966;28;20612;-53
2022/03/29 06:32:35;;;;;;;41.03;24.33;;;6.60;99.90;;;;;;5034132;28;20295;-53
2022/03/29 06:35:04;;;;;;;36.85;25.38;;;6.60;99.90;;;;;;5033486;28;20670;-53
2022/03/29 06:37:31;;;;;;;40.90;26.33;;;6.60;99.90;;;;;;5034668;28;20209;-53
2022/03/29 06:39:59;;;;;;;43.65;26.00;;;6.60;99.90;;;;;;5034128;28;20221;-53
2022/03/29 06:42:28;;;;;;;37.92;25.02;;;6.60;99.90;;;;;;5032864;28;20636;-53
2022/03/29 06:44:55;;;;;;;43.20;27.48;;;6.60;99.90;;;;;;5034505;28;20240;-55
2022/03/29 06:47:22;;;;;;;41.00;27.98;;;6.60;99.90;;;;;;5035980;28;20215;-53
2022/03/29 06:49:50;;;;;;;38.22;25.85;;;6.60;99.90;;;;;;5033750;28;20229;-55
2022/03/29 06:52:17;;;;;;;42.42;26.92;;;6.60;99.90;;;;;;5033324;28;20215;-54
2022/03/29 06:54:44;;;;;;;41.50;28.08;;;6.70;99.90;;;;;;5034272;28;20319;-54
2022/03/29 06:57:11;;;;;;;38.20;27.40;;;6.70;99.90;;;;;;5033938;28;20233;-54
2022/03/29 06:59:40;;;;;;;42.05;28.17;;;6.70;99.90;;;;;;5032669;28;20220;-53
2022/03/29 07:02:07;;;;;;;40.40;26.75;;;6.70;99.90;;;;;;5033610;28;20206;-54
2022/03/29 07:04:34;;;;;;;39.35;27.45;;;6.80;99.90;;;;;;5033800;28;20246;-53
2022/03/29 07:07:01;;;;;;;36.70;25.90;;;6.80;99.90;;;;;;5033253;28;20211;-54
2022/03/29 07:12:13;;;;;;;46.03;26.20;;;6.80;99.90;;;;;;5033740;28;20606;-55
2022/03/29 07:14:41;;;;;;;39.80;26.38;;;6.90;99.90;;;;;;5036584;28;20665;-52
2022/03/29 07:17:13;;;;;;;39.55;26.60;;;6.90;99.90;;;;;;5033573;28;20214;-51
2022/03/29 07:19:40;;;;;;;37.95;27.20;;;6.80;99.90;;;;;;5036042;28;20592;-54
2022/03/29 07:22:07;;;;;;;41.35;24.77;;;6.70;99.90;;;;;;5033648;28;20215;-54
2022/03/29 07:24:34;;;;;;;38.15;25.30;;;6.70;99.90;;;;;;5031715;28;20204;-55
2022/03/29 07:27:01;;;;;;;38.55;24.48;;;6.70;99.90;;;;;;5033210;28;20207;-53
2022/03/29 07:29:29;;;;;;;39.85;25.83;;;6.70;99.90;;;;;;5033236;28;20220;-54
2022/03/29 07:31:58;;;;;;;35.97;25.23;;;6.70;99.90;;;;;;5033354;28;20208;-54
2022/03/29 07:34:25;;;;;;;42.80;25.95;;;6.80;99.90;;;;;;5032839;28;20231;-52
2022/03/29 07:36:52;;;;;;;42.60;26.48;;;6.90;99.90;;;;;;5033684;28;20202;-52
2022/03/29 07:39:19;;;;;;;37.95;26.13;;;6.90;99.60;;;;;;5033648;28;20615;-51
2022/03/29 07:41:47;;;;;;;47.20;28.17;;;6.90;99.40;;;;;;5033590;28;20203;-53
2022/03/29 07:44:14;;;;;;;39.20;25.63;;;6.90;99.40;;;;;;5033616;28;20203;-53
2022/03/29 07:46:41;;;;;;;39.05;25.98;;;7.00;99.50;;;;;;5034141;28;20661;-55
2022/03/29 07:49:10;;;;;;;37.67;26.88;;;6.90;99.20;;;;;;5033255;28;20227;-53
2022/03/29 07:51:38;;;;;;;42.10;26.95;;;7.00;99.60;;;;;;5034063;28;20229;-52
2022/03/29 07:54:05;;;;;;;46.88;26.38;;;7.00;99.60;;;;;;5033851;28;20245;-53
2022/03/29 07:56:33;;;;;;;43.92;26.33;;;7.10;99.60;;;;;;5032699;28;20685;-52
2022/03/29 07:59:00;;;;;;;39.97;27.08;;;7.20;99.30;;;;;;5032140;28;20572;-53
2022/03/29 08:01:28;;;;;;;42.92;25.92;;;7.30;99.00;;;;;;5032613;28;20235;-54
2022/03/29 08:03:56;;;;;;;42.25;27.25;;;7.30;98.70;;;;;;5032866;28;20200;-54
2022/03/29 08:06:24;;;;;;;37.97;23.15;;;7.30;98.20;;;;;;5033183;28;20209;-53
2022/03/29 08:08:53;;;;;;;38.47;24.27;;;7.30;97.90;;;;;;5032248;28;20227;-53
2022/03/29 08:11:22;;;;;;;38.75;25.40;;;7.20;97.70;;;;;;5032814;28;20232;-52
2022/03/29 08:13:49;;;;;;;37.67;25.85;;;7.20;97.70;;;;;;5033522;28;20210;-53
2022/03/29 08:16:16;;;;;;;38.20;23.67;;;7.20;97.60;;;;;;5032267;28;20208;-53
2022/03/29 08:18:43;;;;;;;40.95;26.52;;;7.20;97.40;;;;;;5032982;28;20207;-53
2022/03/29 08:23:53;;;;;;;38.05;25.42;;;7.20;97.40;;;;;;5032788;28;20203;-54
2022/03/29 08:26:21;;;;;;;38.33;25.65;;;7.20;97.30;;;;;;5032792;28;20292;-53
2022/03/29 08:28:48;;;;;;;42.17;28.02;;;7.30;97.30;;;;;;5031764;28;20239;-52
2022/03/29 08:31:15;;;;;;;42.15;26.80;;;7.30;97.20;;;;;;5032104;28;20243;-52
2022/03/29 08:33:42;;;;;;;36.47;24.77;;;7.40;97.20;;;;;;5032567;28;20208;-52
2022/03/29 08:36:09;;;;;;;38.78;23.60;;;7.40;97.00;;;;;;5033239;28;20315;-52
2022/03/29 08:38:36;;;;;;;38.08;24.67;;;7.50;96.60;;;;;;5032810;28;20212;-53
2022/03/29 08:41:06;;;;;;;31.35;21.25;;;7.50;96.00;;;;;;5031573;28;20273;-53
2022/03/29 08:43:33;;;;;;;34.95;21.83;;;7.60;95.80;;;;;;5033461;28;20206;-53
2022/03/29 08:46:01;;;;;;;34.92;23.55;;;7.60;95.70;;;;;;5033950;28;20217;-53
2022/03/29 08:48:30;;;;;;;34.20;22.02;;;7.70;94.90;;;;;;5033639;28;20224;-53
2022/03/29 08:51:00;;;;;;;34.88;22.13;;;7.70;94.50;;;;;;5034491;28;20307;-56
2022/03/29 08:53:28;;;;;;;36.30;22.83;;;7.70;94.40;;;;;;5035251;28;20215;-53
2022/03/29 08:55:55;;;;;;;36.42;23.70;;;7.70;94.40;;;;;;5038202;28;20243;-51
2022/03/29 08:58:24;;;;;;;35.30;22.25;;;7.80;94.40;;;;;;5037598;28;20213;-53
2022/03/29 09:00:53;;;;;;;32.22;23.38;;;8.00;94.10;;;;;;5038753;28;20219;-53
2022/03/29 09:03:20;;;;;;;33.90;22.45;;;8.10;93.40;;;;;;5037659;28;20233;-52
2022/03/29 09:05:49;;;;;;;37.63;23.45;;;8.20;93.40;;;;;;5036589;28;20244;-54
2022/03/29 09:08:17;;;;;;;39.97;26.60;;;8.40;92.70;;;;;;5035594;28;20208;-53
2022/03/29 09:10:48;;;;;;;32.45;21.55;;;8.50;92.20;;;;;;5036048;28;20249;-52
2022/03/29 09:13:20;;;;;;;37.95;24.27;;;8.50;91.80;;;;;;5035955;28;20191;-55
2022/03/29 09:15:50;;;;;;;35.05;24.88;;;8.50;92.00;;;;;;5036710;28;20200;-53
2022/03/29 09:18:17;;;;;;;30.70;22.55;;;8.60;91.90;;;;;;5036171;28;20206;-54
2022/03/29 09:20:45;;;;;;;34.10;22.70;;;8.70;91.50;;;;;;5035143;28;20223;-54
2022/03/29 09:23:14;;;;;;;35.30;25.15;;;8.80;91.00;;;;;;5036617;28;20211;-53
2022/03/29 09:25:47;;;;;;;35.40;24.33;;;8.80;90.90;;;;;;5039459;28;20576;-55
2022/03/29 09:28:15;;;;;;;36.58;25.20;;;8.90;90.70;;;;;;5044284;28;20263;-56
2022/03/29 09:30:44;;;;;;;38.63;25.30;;;9.00;90.00;;;;;;5043572;28;20481;-56
2022/03/29 09:33:14;;;;;;;37.70;23.93;;;9.10;89.60;;;;;;5036237;28;20205;-54
2022/03/29 09:35:58;;;;;;;40.90;27.27;;;9.10;88.80;;;;;;5034838;28;20463;-57
2022/03/29 09:38:29;;;;;;;34.83;24.00;;;9.10;88.40;;;;;;5035830;28;20443;-56
2022/03/29 09:40:58;;;;;;;32.97;25.15;;;9.00;88.10;;;;;;5035620;28;20293;-55
2022/03/29 09:43:26;;;;;;;35.67;25.45;;;9.10;88.40;;;;;;5034667;28;20200;-57
2022/03/29 09:45:56;;;;;;;39.20;25.40;;;9.20;88.30;;;;;;5035625;28;20209;-56
2022/03/29 09:48:27;;;;;;;39.83;26.17;;;9.30;86.60;;;;;;5041774;28;20455;-52
2022/03/29 09:50:58;;;;;;;38.20;23.60;;;9.30;86.50;;;;;;5034338;28;20489;-54
2022/03/29 09:53:38;;;;;;;37.60;25.07;;;9.20;86.50;;;;;;5035069;28;20909;-53
2022/03/29 09:56:06;;;;;;;35.33;24.40;;;9.20;87.00;;;;;;5034836;28;20445;-52
2022/03/29 09:58:34;;;;;;;42.97;26.92;;;9.20;87.90;;;;;;5035386;28;20196;-52
2022/03/29 10:01:01;;;;;;;35.38;25.98;;;9.30;87.30;;;;;;5035520;28;20223;-52
2022/03/29 10:03:33;;;;;;;36.60;25.70;;;9.40;87.10;;;;;;5036252;28;20205;-51
2022/03/29 10:06:04;;;;;;;37.90;25.87;;;9.50;86.40;;;;;;5035004;28;20284;-52
2022/03/29 10:11:22;;;;;;;38.70;25.63;;;9.40;85.60;;;;;;5034677;28;21008;-53
2022/03/29 10:13:50;;;;;;;39.88;27.52;;;9.40;86.10;;;;;;5034126;28;20458;-51
2022/03/29 10:16:17;;;;;;;41.72;26.67;;;9.40;85.70;;;;;;5033840;28;20669;-53
2022/03/29 10:18:47;;;;;;;40.88;26.25;;;9.40;86.00;;;;;;5035638;28;20210;-52
2022/03/29 10:21:16;;;;;;;39.45;28.67;;;9.50;85.90;;;;;;5035477;28;20223;-53
2022/03/29 10:23:45;;;;;;;37.10;26.80;;;9.50;85.70;;;;;;5034820;28;20314;-53
2022/03/29 10:26:17;;;;;;;42.97;28.83;;;9.70;85.70;;;;;;5034792;28;20498;-51
2022/03/29 10:28:46;;;;;;;45.57;30.23;;;9.80;84.70;;;;;;5014933;28;20443;-52
2022/03/29 10:31:33;;;;;;;43.77;28.60;;;9.90;84.00;;;;;;5019277;28;20482;-52
2022/03/29 10:34:18;;;;;;;45.47;29.33;;;10.00;82.00;;;;;;5016051;28;20531;-52
2022/03/29 10:37:16;;;;;;;40.13;28.63;;;10.00;82.00;;;;;;5033914;28;20952;-52
2022/03/29 10:39:51;;;;;;;39.77;28.03;;;10.20;81.10;;;;;;4973220;28;20480;-52
2022/03/29 10:42:41;;;;;;;40.03;26.93;;;10.20;80.30;;;;;;5023190;28;20466;-53
2022/03/29 10:45:17;;;;;;;43.67;27.33;;;10.20;79.30;;;;;;5029227;28;20462;-52
2022/03/29 10:47:45;;;;;;;41.87;27.23;;;10.30;79.10;;;;;;5033995;28;20547;-53
2022/03/29 10:50:15;;;;;;;37.60;27.43;;;10.40;78.70;;;;;;5033797;28;20889;-53
2022/03/29 10:52:44;;;;;;;38.93;27.37;;;10.50;76.90;;;;;;5034098;28;20454;-52
2022/03/29 10:55:27;;;;;;;37.13;26.47;;;10.50;76.80;;;;;;5032822;28;20539;-53
2022/03/29 10:58:06;;;;;;;36.70;26.97;;;10.60;76.80;;;;;;5033667;28;20534;-52
2022/03/29 11:00:33;;;;;;;34.07;23.90;;;10.70;76.10;;;;;;5034516;28;20501;-55
2022/03/29 11:03:15;;;;;;;41.43;26.97;;;10.70;75.50;;;;;;5032751;28;20523;-53
2022/03/29 11:06:11;;;;;;;34.47;24.10;;;10.80;74.90;;;;;;5035312;28;20454;-53
2022/03/29 11:08:41;;;;;;;35.50;24.20;;;10.90;73.90;;;;;;5028519;28;20451;-54
2022/03/29 11:11:29;;;;;;;33.10;23.60;;;11.00;73.40;;;;;;5034225;28;20586;-52
2022/03/29 11:14:34;;;;;;;32.00;23.30;;;11.20;72.50;;;;;;5040701;28;20541;-57
2022/03/29 11:17:36;;;;;;;35.50;24.63;;;11.50;70.90;;;;;;5031144;28;20494;-57
2022/03/29 11:20:32;;;;;;;37.23;24.10;;;11.50;69.10;;;;;;5034223;28;20519;-56
2022/03/29 11:23:04;;;;;;;35.40;25.50;;;11.50;69.20;;;;;;5033875;28;20445;-55
2022/03/29 11:25:38;;;;;;;37.00;24.67;;;11.50;68.60;;;;;;5040017;28;20451;-56
2022/03/29 11:28:07;;;;;;;33.83;22.90;;;11.60;68.30;;;;;;5033528;28;20437;-56
2022/03/29 11:30:37;;;;;;;35.97;24.87;;;11.70;67.30;;;;;;5034662;28;20592;-53
2022/03/29 11:33:06;;;;;;;36.40;24.70;;;11.70;66.90;;;;;;5031840;28;20452;-54
2022/03/29 11:35:34;;;;;;;34.97;23.73;;;11.80;65.80;;;;;;5032335;28;20459;-53
2022/03/29 11:38:09;;;;;;;32.53;23.20;;;11.80;64.70;;;;;;5032944;28;20848;-52
2022/03/29 11:40:37;;;;;;;33.50;23.55;;;11.70;64.70;;;;;;5032814;28;20429;-53
2022/03/29 11:43:10;;;;;;;32.03;24.00;;;11.50;64.20;;;;;;5032348;28;20339;-53
2022/03/29 11:45:41;;;;;;;31.40;23.20;;;11.40;64.50;;;;;;5033698;28;20441;-53
2022/03/29 11:48:12;;;;;;;30.63;22.47;;;11.40;64.20;;;;;;5032713;28;20441;-55
2022/03/29 11:50:42;;;;;;;34.03;23.30;;;11.40;64.00;;;;;;5031980;28;20485;-55
2022/03/29 11:53:20;;;;;;;28.23;21.13;;;11.50;64.40;;;;;;5032393;28;20976;-55
2022/03/29 11:55:55;;;;;;;29.97;22.80;;;11.60;64.20;;;;;;5033188;28;20499;-55
2022/03/29 11:58:23;;;;;;;28.70;20.87;;;11.60;63.60;;;;;;5032175;28;20455;-55
2022/03/29 12:00:51;;;;;;;33.10;25.00;;;11.60;63.50;;;;;;5032647;28;20826;-56
2022/03/29 12:03:29;;;;;;;32.80;23.30;;;11.60;63.00;;;;;;5031572;28;20829;-54
2022/03/29 12:06:04;;;;;;;28.00;20.13;;;11.60;62.50;;;;;;5032549;28;20446;-55
2022/03/29 12:08:56;;;;;;;26.20;20.37;;;11.50;62.40;;;;;;5032757;28;20960;-55
2022/03/29 12:11:25;;;;;;;28.87;19.30;;;11.60;62.50;;;;;;5016881;28;20499;-58
2022/03/29 12:14:05;;;;;;;31.10;19.73;;;11.70;61.90;;;;;;5032711;28;20449;-56
2022/03/29 12:16:35;;;;;;;35.50;21.60;;;11.70;61.70;;;;;;5032298;28;20484;-55
2022/03/29 12:19:07;;;;;;;28.57;19.27;;;11.80;61.30;;;;;;5032686;28;20449;-55
2022/03/29 12:21:35;;;;;;;28.47;19.70;;;11.70;61.00;;;;;;5031791;28;20485;-57
2022/03/29 12:24:06;;;;;;;27.63;18.90;;;11.70;61.00;;;;;;5032385;28;20476;-55
2022/03/29 12:26:34;;;;;;;26.90;17.57;;;11.80;61.00;;;;;;5032662;28;20854;-56
2022/03/29 12:29:02;;;;;;;24.77;19.60;;;11.80;60.50;;;;;;5031979;28;20449;-55
2022/03/29 12:31:30;;;;;;;30.47;20.40;;;11.70;60.10;;;;;;5036481;28;20514;-55
2022/03/29 12:33:59;;;;;;;27.87;19.63;;;11.70;60.40;;;;;;5036669;28;20930;-55
2022/03/29 12:36:26;;;;;;;28.60;18.17;;;11.70;60.50;;;;;;5036601;28;20449;-56
2022/03/29 12:38:55;;;;;;;28.23;19.50;;;11.80;60.00;;;;;;5037727;28;20453;-56
2022/03/29 12:41:35;;;;;;;27.75;19.77;;;11.80;59.80;;;;;;5036609;28;20442;-57
2022/03/29 12:44:03;;;;;;;28.73;19.63;;;11.80;59.60;;;;;;5036047;28;20559;-57
2022/03/29 12:46:31;;;;;;;29.23;19.20;;;11.90;59.90;;;;;;5037202;28;20445;-56
2022/03/29 12:49:01;;;;;;;27.83;19.10;;;11.90;59.10;;;;;;5036954;28;20447;-55
2022/03/29 12:51:30;;;;;;;31.37;20.33;;;11.80;58.70;;;;;;5036937;28;20890;-58
2022/03/29 12:53:58;;;;;;;27.67;18.93;;;11.70;59.00;;;;;;5037193;28;20451;-56
2022/03/29 12:56:34;;;;;;;26.13;20.50;;;11.70;59.50;;;;;;5036264;28;20451;-56
2022/03/29 12:59:01;;;;;;;23.93;18.17;;;11.90;59.40;;;;;;5036735;28;20445;-57
2022/03/29 13:01:30;;;;;;;31.20;20.50;;;12.20;58.50;;;;;;5036910;28;20480;-56